sensor_id;sensor_type;location;lat;lon;timestamp;P1;durP1;ratioP1;P2;durP2;ratioP2
24663;SDS011;12791;50.992;13.788;2023-07-02T00:01:17;0.80;;;0.80;;
24663;SDS011;12791;50.992;13.788;2023-07-02T00:03:44;1.10;;;1.00;;
24663;SDS011;12791;50.992;13.788;2023-07-02T00:06:11;0.80;;;0.80;;
24663;SDS011;12791;50.992;13.788;2023-07-02T00:08:37;1.98;;;1.23;;
24663;SDS011;12791;50.992;13.788;2023-07-02T00:11:05;1.35;;;0.80;;
24663;SDS011;12791;50.992;13.788;2023-07-02T00:13:32;2.13;;;0.98;;
24663;SDS011;12791;50.992;13.788;2023-07-02T00:15:58;0.95;;;0.80;;
24663;SDS011;12791;50.992;13.788;2023-07-02T00:18:26;0.80;;;0.80;;
24663;SDS011;12791;50.992;13.788;2023-07-02T00:20:58;1.02;;;1.02;;
24663;SDS011;12791;50.992;13.788;2023-07-02T00:23:26;1.23;;;0.80;;
24663;SDS011;12791;50.992;13.788;2023-07-02T00:25:52;1.00;;;0.90;;
24663;SDS011;12791;50.992;13.788;2023-07-02T00:28:19;0.80;;;0.80;;
24663;SDS011;12791;50.992;13.788;2023-07-02T00:30:45;1.35;;;0.73;;
24663;SDS011;12791;50.992;13.788;2023-07-02T00:33:12;1.40;;;0.70;;
24663;SDS011;12791;50.992;13.788;2023-07-02T00:35:40;0.73;;;0.73;;
24663;SDS011;12791;50.992;13.788;2023-07-02T00:38:07;0.70;;;0.70;;
24663;SDS011;12791;50.992;13.788;2023-07-02T00:40:33;0.77;;;0.70;;
24663;SDS011;12791;50.992;13.788;2023-07-02T00:43:02;0.80;;;0.80;;
24663;SDS011;12791;50.992;13.788;2023-07-02T00:45:28;0.63;;;0.63;;
24663;SDS011;12791;50.992;13.788;2023-07-02T00:47:56;1.52;;;0.70;;
24663;SDS011;12791;50.992;13.788;2023-07-02T00:50:23;0.55;;;0.55;;
24663;SDS011;12791;50.992;13.788;2023-07-02T00:52:53;0.55;;;0.50;;
24663;SDS011;12791;50.992;13.788;2023-07-02T00:55:20;0.70;;;0.60;;
24663;SDS011;12791;50.992;13.788;2023-07-02T00:57:47;0.70;;;0.70;;
24663;SDS011;12791;50.992;13.788;2023-07-02T01:00:13;2.05;;;0.60;;
24663;SDS011;12791;50.992;13.788;2023-07-02T01:02:40;1.58;;;0.60;;
24663;SDS011;12791;50.992;13.788;2023-07-02T01:05:09;0.65;;;0.65;;
24663;SDS011;12791;50.992;13.788;2023-07-02T01:07:39;1.73;;;1.00;;
24663;SDS011;12791;50.992;13.788;2023-07-02T01:10:08;0.65;;;0.60;;
24663;SDS011;12791;50.992;13.788;2023-07-02T01:12:35;0.77;;;0.70;;
24663;SDS011;12791;50.992;13.788;2023-07-02T01:15:03;0.60;;;0.60;;
24663;SDS011;12791;50.992;13.788;2023-07-02T01:17:32;0.68;;;0.68;;
24663;SDS011;12791;50.992;13.788;2023-07-02T01:20:06;0.50;;;0.50;;
24663;SDS011;12791;50.992;13.788;2023-07-02T01:22:34;0.57;;;0.57;;
24663;SDS011;12791;50.992;13.788;2023-07-02T01:25:01;1.63;;;0.50;;
24663;SDS011;12791;50.992;13.788;2023-07-02T01:27:29;0.52;;;0.52;;
24663;SDS011;12791;50.992;13.788;2023-07-02T01:29:56;0.82;;;0.57;;
24663;SDS011;12791;50.992;13.788;2023-07-02T01:32:23;1.20;;;0.55;;
24663;SDS011;12791;50.992;13.788;2023-07-02T01:34:49;1.23;;;0.60;;
24663;SDS011;12791;50.992;13.788;2023-07-02T01:37:19;0.60;;;0.57;;
24663;SDS011;12791;50.992;13.788;2023-07-02T01:39:46;0.50;;;0.50;;
24663;SDS011;12791;50.992;13.788;2023-07-02T01:42:13;0.70;;;0.68;;
24663;SDS011;12791;50.992;13.788;2023-07-02T01:44:40;1.45;;;0.63;;
24663;SDS011;12791;50.992;13.788;2023-07-02T01:47:07;0.50;;;0.50;;
24663;SDS011;12791;50.992;13.788;2023-07-02T01:49:34;0.60;;;0.60;;
24663;SDS011;12791;50.992;13.788;2023-07-02T01:52:03;0.60;;;0.60;;
24663;SDS011;12791;50.992;13.788;2023-07-02T01:54:32;1.77;;;0.50;;
24663;SDS011;12791;50.992;13.788;2023-07-02T01:57:01;0.88;;;0.88;;
24663;SDS011;12791;50.992;13.788;2023-07-02T01:59:28;1.55;;;0.60;;
24663;SDS011;12791;50.992;13.788;2023-07-02T02:01:55;0.60;;;0.60;;
24663;SDS011;12791;50.992;13.788;2023-07-02T02:04:22;0.60;;;0.60;;
24663;SDS011;12791;50.992;13.788;2023-07-02T02:06:48;0.95;;;0.50;;
24663;SDS011;12791;50.992;13.788;2023-07-02T02:09:15;0.60;;;0.60;;
24663;SDS011;12791;50.992;13.788;2023-07-02T02:11:43;0.60;;;0.60;;
24663;SDS011;12791;50.992;13.788;2023-07-02T02:14:11;1.13;;;0.60;;
24663;SDS011;12791;50.992;13.788;2023-07-02T02:16:37;1.10;;;0.60;;
24663;SDS011;12791;50.992;13.788;2023-07-02T02:19:04;0.60;;;0.60;;
24663;SDS011;12791;50.992;13.788;2023-07-02T02:21:31;0.60;;;0.60;;
24663;SDS011;12791;50.992;13.788;2023-07-02T02:23:58;1.20;;;0.70;;
24663;SDS011;12791;50.992;13.788;2023-07-02T02:26:24;0.60;;;0.60;;
24663;SDS011;12791;50.992;13.788;2023-07-02T02:28:52;0.60;;;0.60;;
24663;SDS011;12791;50.992;13.788;2023-07-02T02:31:19;1.10;;;0.60;;
24663;SDS011;12791;50.992;13.788;2023-07-02T02:33:45;0.60;;;0.60;;
24663;SDS011;12791;50.992;13.788;2023-07-02T02:36:12;0.73;;;0.73;;
24663;SDS011;12791;50.992;13.788;2023-07-02T02:38:38;0.65;;;0.60;;
24663;SDS011;12791;50.992;13.788;2023-07-02T02:41:05;1.58;;;0.80;;
24663;SDS011;12791;50.992;13.788;2023-07-02T02:43:33;0.70;;;0.70;;
24663;SDS011;12791;50.992;13.788;2023-07-02T02:46:01;0.70;;;0.63;;
24663;SDS011;12791;50.992;13.788;2023-07-02T02:48:28;1.10;;;0.60;;
24663;SDS011;12791;50.992;13.788;2023-07-02T02:50:54;0.63;;;0.60;;
24663;SDS011;12791;50.992;13.788;2023-07-02T02:53:21;0.60;;;0.60;;
24663;SDS011;12791;50.992;13.788;2023-07-02T02:55:47;0.68;;;0.68;;
24663;SDS011;12791;50.992;13.788;2023-07-02T02:58:14;1.27;;;0.60;;
24663;SDS011;12791;50.992;13.788;2023-07-02T03:00:40;0.60;;;0.60;;
24663;SDS011;12791;50.992;13.788;2023-07-02T03:03:11;0.60;;;0.60;;
24663;SDS011;12791;50.992;13.788;2023-07-02T03:05:38;0.60;;;0.60;;
24663;SDS011;12791;50.992;13.788;2023-07-02T03:08:05;0.60;;;0.60;;
24663;SDS011;12791;50.992;13.788;2023-07-02T03:10:31;0.63;;;0.63;;
24663;SDS011;12791;50.992;13.788;2023-07-02T03:12:58;0.70;;;0.65;;
24663;SDS011;12791;50.992;13.788;2023-07-02T03:15:25;0.60;;;0.60;;
24663;SDS011;12791;50.992;13.788;2023-07-02T03:17:51;0.68;;;0.68;;
24663;SDS011;12791;50.992;13.788;2023-07-02T03:20:19;0.60;;;0.60;;
24663;SDS011;12791;50.992;13.788;2023-07-02T03:22:46;0.70;;;0.70;;
24663;SDS011;12791;50.992;13.788;2023-07-02T03:25:13;0.65;;;0.65;;
24663;SDS011;12791;50.992;13.788;2023-07-02T03:27:40;0.60;;;0.60;;
24663;SDS011;12791;50.992;13.788;2023-07-02T03:30:07;0.75;;;0.60;;
24663;SDS011;12791;50.992;13.788;2023-07-02T03:32:34;0.60;;;0.60;;
24663;SDS011;12791;50.992;13.788;2023-07-02T03:35:01;0.70;;;0.70;;
24663;SDS011;12791;50.992;13.788;2023-07-02T03:37:28;0.85;;;0.60;;
24663;SDS011;12791;50.992;13.788;2023-07-02T03:39:55;0.60;;;0.60;;
24663;SDS011;12791;50.992;13.788;2023-07-02T03:42:23;1.10;;;0.75;;
24663;SDS011;12791;50.992;13.788;2023-07-02T03:44:50;1.95;;;0.70;;
24663;SDS011;12791;50.992;13.788;2023-07-02T03:47:16;0.75;;;0.70;;
24663;SDS011;12791;50.992;13.788;2023-07-02T03:49:44;0.70;;;0.70;;
24663;SDS011;12791;50.992;13.788;2023-07-02T03:52:11;0.60;;;0.60;;
24663;SDS011;12791;50.992;13.788;2023-07-02T03:54:38;0.70;;;0.70;;
24663;SDS011;12791;50.992;13.788;2023-07-02T03:57:05;0.70;;;0.70;;
24663;SDS011;12791;50.992;13.788;2023-07-02T03:59:32;0.80;;;0.80;;
24663;SDS011;12791;50.992;13.788;2023-07-02T04:01:58;0.80;;;0.80;;
24663;SDS011;12791;50.992;13.788;2023-07-02T04:04:25;0.65;;;0.65;;
24663;SDS011;12791;50.992;13.788;2023-07-02T04:06:51;0.85;;;0.70;;
24663;SDS011;12791;50.992;13.788;2023-07-02T04:09:18;0.70;;;0.70;;
24663;SDS011;12791;50.992;13.788;2023-07-02T04:11:47;0.77;;;0.77;;
24663;SDS011;12791;50.992;13.788;2023-07-02T04:14:13;0.70;;;0.70;;
24663;SDS011;12791;50.992;13.788;2023-07-02T04:16:40;0.70;;;0.70;;
24663;SDS011;12791;50.992;13.788;2023-07-02T04:19:08;0.68;;;0.68;;
24663;SDS011;12791;50.992;13.788;2023-07-02T04:21:35;0.77;;;0.77;;
24663;SDS011;12791;50.992;13.788;2023-07-02T04:24:02;1.20;;;0.90;;
24663;SDS011;12791;50.992;13.788;2023-07-02T04:26:29;1.10;;;1.00;;
24663;SDS011;12791;50.992;13.788;2023-07-02T04:28:57;0.82;;;0.82;;
24663;SDS011;12791;50.992;13.788;2023-07-02T04:31:24;1.95;;;0.80;;
24663;SDS011;12791;50.992;13.788;2023-07-02T04:33:51;0.85;;;0.80;;
24663;SDS011;12791;50.992;13.788;2023-07-02T04:36:17;0.70;;;0.70;;
24663;SDS011;12791;50.992;13.788;2023-07-02T04:38:44;0.98;;;0.98;;
24663;SDS011;12791;50.992;13.788;2023-07-02T04:41:10;0.90;;;0.90;;
24663;SDS011;12791;50.992;13.788;2023-07-02T04:43:37;1.67;;;0.95;;
24663;SDS011;12791;50.992;13.788;2023-07-02T04:46:05;0.90;;;0.90;;
24663;SDS011;12791;50.992;13.788;2023-07-02T04:48:32;0.88;;;0.88;;
24663;SDS011;12791;50.992;13.788;2023-07-02T04:50:59;1.08;;;1.08;;
24663;SDS011;12791;50.992;13.788;2023-07-02T04:53:26;1.10;;;0.95;;
24663;SDS011;12791;50.992;13.788;2023-07-02T04:55:52;1.70;;;1.15;;
24663;SDS011;12791;50.992;13.788;2023-07-02T04:58:19;1.27;;;1.10;;
24663;SDS011;12791;50.992;13.788;2023-07-02T05:00:45;1.23;;;1.20;;
24663;SDS011;12791;50.992;13.788;2023-07-02T05:03:13;3.03;;;1.45;;
24663;SDS011;12791;50.992;13.788;2023-07-02T05:05:40;1.55;;;1.08;;
24663;SDS011;12791;50.992;13.788;2023-07-02T05:08:06;1.35;;;0.98;;
24663;SDS011;12791;50.992;13.788;2023-07-02T05:10:33;1.60;;;1.10;;
24663;SDS011;12791;50.992;13.788;2023-07-02T05:13:00;1.63;;;1.25;;
24663;SDS011;12791;50.992;13.788;2023-07-02T05:15:26;0.90;;;0.90;;
24663;SDS011;12791;50.992;13.788;2023-07-02T05:17:53;1.67;;;1.17;;
24663;SDS011;12791;50.992;13.788;2023-07-02T05:20:21;0.90;;;0.90;;
24663;SDS011;12791;50.992;13.788;2023-07-02T05:22:48;2.10;;;1.20;;
24663;SDS011;12791;50.992;13.788;2023-07-02T05:25:14;3.25;;;1.70;;
24663;SDS011;12791;50.992;13.788;2023-07-02T05:27:41;1.63;;;1.30;;
24663;SDS011;12791;50.992;13.788;2023-07-02T05:30:08;1.48;;;1.38;;
24663;SDS011;12791;50.992;13.788;2023-07-02T05:32:34;1.35;;;1.25;;
24663;SDS011;12791;50.992;13.788;2023-07-02T05:35:01;1.15;;;1.15;;
24663;SDS011;12791;50.992;13.788;2023-07-02T05:37:29;1.98;;;1.50;;
24663;SDS011;12791;50.992;13.788;2023-07-02T05:39:56;1.55;;;1.40;;
24663;SDS011;12791;50.992;13.788;2023-07-02T05:42:22;1.50;;;1.40;;
24663;SDS011;12791;50.992;13.788;2023-07-02T05:44:49;1.48;;;1.48;;
24663;SDS011;12791;50.992;13.788;2023-07-02T05:47:16;1.17;;;1.10;;
24663;SDS011;12791;50.992;13.788;2023-07-02T05:49:42;1.70;;;1.60;;
24663;SDS011;12791;50.992;13.788;2023-07-02T05:52:09;1.45;;;1.42;;
24663;SDS011;12791;50.992;13.788;2023-07-02T05:54:39;1.52;;;1.42;;
24663;SDS011;12791;50.992;13.788;2023-07-02T05:57:06;1.45;;;1.30;;
24663;SDS011;12791;50.992;13.788;2023-07-02T05:59:32;1.25;;;1.20;;
24663;SDS011;12791;50.992;13.788;2023-07-02T06:01:59;1.40;;;1.27;;
24663;SDS011;12791;50.992;13.788;2023-07-02T06:04:26;1.42;;;1.33;;
24663;SDS011;12791;50.992;13.788;2023-07-02T06:06:52;1.30;;;1.20;;
24663;SDS011;12791;50.992;13.788;2023-07-02T06:09:19;1.80;;;1.70;;
24663;SDS011;12791;50.992;13.788;2023-07-02T06:11:47;1.70;;;1.60;;
24663;SDS011;12791;50.992;13.788;2023-07-02T06:14:14;1.67;;;1.67;;
24663;SDS011;12791;50.992;13.788;2023-07-02T06:16:40;1.58;;;1.48;;
24663;SDS011;12791;50.992;13.788;2023-07-02T06:19:07;1.70;;;1.60;;
24663;SDS011;12791;50.992;13.788;2023-07-02T06:21:34;1.58;;;1.58;;
24663;SDS011;12791;50.992;13.788;2023-07-02T06:24:00;1.67;;;1.67;;
24663;SDS011;12791;50.992;13.788;2023-07-02T06:26:28;1.85;;;1.85;;
24663;SDS011;12791;50.992;13.788;2023-07-02T06:28:56;1.63;;;1.60;;
24663;SDS011;12791;50.992;13.788;2023-07-02T06:31:23;1.92;;;1.83;;
24663;SDS011;12791;50.992;13.788;2023-07-02T06:33:50;1.73;;;1.63;;
24663;SDS011;12791;50.992;13.788;2023-07-02T06:36:16;2.05;;;1.90;;
24663;SDS011;12791;50.992;13.788;2023-07-02T06:38:43;1.83;;;1.73;;
24663;SDS011;12791;50.992;13.788;2023-07-02T06:41:10;1.50;;;1.50;;
24663;SDS011;12791;50.992;13.788;2023-07-02T06:43:37;1.77;;;1.45;;
24663;SDS011;12791;50.992;13.788;2023-07-02T06:46:05;1.60;;;1.50;;
24663;SDS011;12791;50.992;13.788;2023-07-02T06:48:31;1.25;;;1.25;;
24663;SDS011;12791;50.992;13.788;2023-07-02T06:50:58;1.50;;;1.50;;
24663;SDS011;12791;50.992;13.788;2023-07-02T06:53:25;1.98;;;1.50;;
24663;SDS011;12791;50.992;13.788;2023-07-02T06:55:52;1.42;;;1.38;;
24663;SDS011;12791;50.992;13.788;2023-07-02T06:58:18;1.50;;;1.50;;
24663;SDS011;12791;50.992;13.788;2023-07-02T07:00:45;1.55;;;1.45;;
24663;SDS011;12791;50.992;13.788;2023-07-02T07:03:13;1.30;;;1.30;;
24663;SDS011;12791;50.992;13.788;2023-07-02T07:05:40;1.52;;;1.42;;
24663;SDS011;12791;50.992;13.788;2023-07-02T07:08:06;2.05;;;1.38;;
24663;SDS011;12791;50.992;13.788;2023-07-02T07:10:33;1.63;;;1.52;;
24663;SDS011;12791;50.992;13.788;2023-07-02T07:13:00;1.70;;;1.60;;
24663;SDS011;12791;50.992;13.788;2023-07-02T07:15:29;1.67;;;1.58;;
24663;SDS011;12791;50.992;13.788;2023-07-02T07:17:56;1.80;;;1.70;;
24663;SDS011;12791;50.992;13.788;2023-07-02T07:20:24;2.00;;;1.90;;
24663;SDS011;12791;50.992;13.788;2023-07-02T07:22:50;2.10;;;2.00;;
24663;SDS011;12791;50.992;13.788;2023-07-02T07:25:17;2.33;;;2.22;;
24663;SDS011;12791;50.992;13.788;2023-07-02T07:27:43;2.35;;;2.25;;
24663;SDS011;12791;50.992;13.788;2023-07-02T07:30:11;2.53;;;2.42;;
24663;SDS011;12791;50.992;13.788;2023-07-02T07:32:39;2.70;;;2.60;;
24663;SDS011;12791;50.992;13.788;2023-07-02T07:35:06;2.95;;;2.83;;
24663;SDS011;12791;50.992;13.788;2023-07-02T07:37:34;2.45;;;2.35;;
24663;SDS011;12791;50.992;13.788;2023-07-02T07:40:01;2.55;;;2.45;;
24663;SDS011;12791;50.992;13.788;2023-07-02T07:42:27;5.28;;;3.15;;
24663;SDS011;12791;50.992;13.788;2023-07-02T07:44:54;2.78;;;2.67;;
24663;SDS011;12791;50.992;13.788;2023-07-02T07:47:21;2.90;;;2.80;;
24663;SDS011;12791;50.992;13.788;2023-07-02T07:49:47;2.97;;;2.70;;
24663;SDS011;12791;50.992;13.788;2023-07-02T07:52:14;2.90;;;2.70;;
24663;SDS011;12791;50.992;13.788;2023-07-02T07:54:42;3.65;;;2.38;;
24663;SDS011;12791;50.992;13.788;2023-07-02T07:57:08;3.58;;;2.67;;
24663;SDS011;12791;50.992;13.788;2023-07-02T07:59:35;2.42;;;2.22;;
24663;SDS011;12791;50.992;13.788;2023-07-02T08:02:01;2.40;;;2.30;;
24663;SDS011;12791;50.992;13.788;2023-07-02T08:04:28;3.53;;;2.22;;
24663;SDS011;12791;50.992;13.788;2023-07-02T08:06:55;2.08;;;1.98;;
24663;SDS011;12791;50.992;13.788;2023-07-02T08:09:22;2.05;;;1.95;;
24663;SDS011;12791;50.992;13.788;2023-07-02T08:11:50;1.70;;;1.60;;
24663;SDS011;12791;50.992;13.788;2023-07-02T08:14:17;2.10;;;2.00;;
24663;SDS011;12791;50.992;13.788;2023-07-02T08:16:44;2.10;;;2.00;;
24663;SDS011;12791;50.992;13.788;2023-07-02T08:19:10;1.80;;;1.70;;
24663;SDS011;12791;50.992;13.788;2023-07-02T08:21:37;1.70;;;1.60;;
24663;SDS011;12791;50.992;13.788;2023-07-02T08:24:04;2.97;;;1.55;;
24663;SDS011;12791;50.992;13.788;2023-07-02T08:26:31;1.35;;;1.27;;
24663;SDS011;12791;50.992;13.788;2023-07-02T08:29:00;1.58;;;1.52;;
24663;SDS011;12791;50.992;13.788;2023-07-02T08:31:27;1.83;;;1.67;;
24663;SDS011;12791;50.992;13.788;2023-07-02T08:33:53;1.50;;;1.40;;
24663;SDS011;12791;50.992;13.788;2023-07-02T08:36:20;1.90;;;1.80;;
24663;SDS011;12791;50.992;13.788;2023-07-02T08:38:47;1.48;;;1.33;;
24663;SDS011;12791;50.992;13.788;2023-07-02T08:41:13;1.50;;;1.50;;
24663;SDS011;12791;50.992;13.788;2023-07-02T08:43:40;1.77;;;1.67;;
24663;SDS011;12791;50.992;13.788;2023-07-02T08:46:08;2.25;;;1.50;;
24663;SDS011;12791;50.992;13.788;2023-07-02T08:48:36;4.43;;;1.63;;
24663;SDS011;12791;50.992;13.788;2023-07-02T08:51:03;1.42;;;1.33;;
24663;SDS011;12791;50.992;13.788;2023-07-02T08:53:30;3.47;;;1.40;;
24663;SDS011;12791;50.992;13.788;2023-07-02T08:55:58;1.50;;;1.40;;
24663;SDS011;12791;50.992;13.788;2023-07-02T08:58:25;1.20;;;1.13;;
24663;SDS011;12791;50.992;13.788;2023-07-02T09:01:05;1.55;;;1.45;;
24663;SDS011;12791;50.992;13.788;2023-07-02T09:03:37;1.88;;;1.77;;
24663;SDS011;12791;50.992;13.788;2023-07-02T09:06:05;1.48;;;1.38;;
24663;SDS011;12791;50.992;13.788;2023-07-02T09:08:32;1.35;;;1.35;;
24663;SDS011;12791;50.992;13.788;2023-07-02T09:11:09;1.38;;;1.20;;
24663;SDS011;12791;50.992;13.788;2023-07-02T09:13:43;1.45;;;1.35;;
24663;SDS011;12791;50.992;13.788;2023-07-02T09:16:22;1.17;;;1.17;;
24663;SDS011;12791;50.992;13.788;2023-07-02T09:18:56;1.98;;;1.40;;
24663;SDS011;12791;50.992;13.788;2023-07-02T09:21:27;1.58;;;1.48;;
24663;SDS011;12791;50.992;13.788;2023-07-02T09:23:54;1.65;;;1.55;;
24663;SDS011;12791;50.992;13.788;2023-07-02T09:26:21;1.52;;;1.45;;
24663;SDS011;12791;50.992;13.788;2023-07-02T09:28:48;1.42;;;1.33;;
24663;SDS011;12791;50.992;13.788;2023-07-02T09:31:16;1.73;;;1.13;;
24663;SDS011;12791;50.992;13.788;2023-07-02T09:33:43;0.98;;;0.98;;
24663;SDS011;12791;50.992;13.788;2023-07-02T09:36:11;1.67;;;0.93;;
24663;SDS011;12791;50.992;13.788;2023-07-02T09:38:37;1.80;;;1.10;;
24663;SDS011;12791;50.992;13.788;2023-07-02T09:41:06;1.25;;;1.10;;
24663;SDS011;12791;50.992;13.788;2023-07-02T09:43:33;2.40;;;0.90;;
24663;SDS011;12791;50.992;13.788;2023-07-02T09:46:00;4.50;;;1.13;;
24663;SDS011;12791;50.992;13.788;2023-07-02T09:48:27;1.98;;;0.90;;
24663;SDS011;12791;50.992;13.788;2023-07-02T09:51:01;1.13;;;0.88;;
24663;SDS011;12791;50.992;13.788;2023-07-02T09:53:29;1.00;;;0.90;;
24663;SDS011;12791;50.992;13.788;2023-07-02T09:55:56;1.20;;;0.90;;
24663;SDS011;12791;50.992;13.788;2023-07-02T09:58:23;1.13;;;1.00;;
24663;SDS011;12791;50.992;13.788;2023-07-02T10:00:50;0.90;;;0.90;;
24663;SDS011;12791;50.992;13.788;2023-07-02T10:03:17;0.90;;;0.90;;
24663;SDS011;12791;50.992;13.788;2023-07-02T10:06:03;2.95;;;1.10;;
24663;SDS011;12791;50.992;13.788;2023-07-02T10:08:30;1.15;;;1.05;;
24663;SDS011;12791;50.992;13.788;2023-07-02T10:11:05;1.10;;;1.10;;
24663;SDS011;12791;50.992;13.788;2023-07-02T10:13:34;1.42;;;1.10;;
24663;SDS011;12791;50.992;13.788;2023-07-02T10:16:00;1.20;;;1.00;;
24663;SDS011;12791;50.992;13.788;2023-07-02T10:18:27;1.42;;;1.17;;
24663;SDS011;12791;50.992;13.788;2023-07-02T10:20:54;0.95;;;0.95;;
24663;SDS011;12791;50.992;13.788;2023-07-02T10:23:22;0.80;;;0.80;;
24663;SDS011;12791;50.992;13.788;2023-07-02T10:26:09;0.90;;;0.90;;
24663;SDS011;12791;50.992;13.788;2023-07-02T10:28:36;1.80;;;0.90;;
24663;SDS011;12791;50.992;13.788;2023-07-02T10:31:02;1.77;;;0.93;;
24663;SDS011;12791;50.992;13.788;2023-07-02T10:33:29;2.05;;;0.88;;
24663;SDS011;12791;50.992;13.788;2023-07-02T10:35:55;1.02;;;1.02;;
24663;SDS011;12791;50.992;13.788;2023-07-02T10:38:24;1.10;;;1.00;;
24663;SDS011;12791;50.992;13.788;2023-07-02T10:40:54;2.85;;;1.10;;
24663;SDS011;12791;50.992;13.788;2023-07-02T10:43:25;1.10;;;1.10;;
24663;SDS011;12791;50.992;13.788;2023-07-02T10:45:52;2.72;;;1.05;;
24663;SDS011;12791;50.992;13.788;2023-07-02T10:48:19;0.80;;;0.80;;
24663;SDS011;12791;50.992;13.788;2023-07-02T10:50:46;3.55;;;0.82;;
24663;SDS011;12791;50.992;13.788;2023-07-02T10:53:14;1.10;;;1.00;;
24663;SDS011;12791;50.992;13.788;2023-07-02T10:55:42;0.80;;;0.80;;
24663;SDS011;12791;50.992;13.788;2023-07-02T10:58:10;1.05;;;1.05;;
24663;SDS011;12791;50.992;13.788;2023-07-02T11:00:46;1.33;;;1.23;;
24663;SDS011;12791;50.992;13.788;2023-07-02T11:03:17;0.88;;;0.70;;
24663;SDS011;12791;50.992;13.788;2023-07-02T11:05:45;1.00;;;1.00;;
24663;SDS011;12791;50.992;13.788;2023-07-02T11:08:12;0.80;;;0.80;;
24663;SDS011;12791;50.992;13.788;2023-07-02T11:10:39;1.58;;;0.90;;
24663;SDS011;12791;50.992;13.788;2023-07-02T11:13:11;0.80;;;0.80;;
24663;SDS011;12791;50.992;13.788;2023-07-02T11:15:38;0.77;;;0.75;;
24663;SDS011;12791;50.992;13.788;2023-07-02T11:18:09;1.02;;;0.90;;
24663;SDS011;12791;50.992;13.788;2023-07-02T11:20:36;1.20;;;0.80;;
24663;SDS011;12791;50.992;13.788;2023-07-02T11:23:03;0.95;;;0.95;;
24663;SDS011;12791;50.992;13.788;2023-07-02T11:25:29;0.90;;;0.90;;
24663;SDS011;12791;50.992;13.788;2023-07-02T11:28:01;1.63;;;0.80;;
24663;SDS011;12791;50.992;13.788;2023-07-02T11:30:30;0.90;;;0.90;;
24663;SDS011;12791;50.992;13.788;2023-07-02T11:32:56;0.77;;;0.77;;
24663;SDS011;12791;50.992;13.788;2023-07-02T11:35:33;1.05;;;0.80;;
24663;SDS011;12791;50.992;13.788;2023-07-02T11:38:00;0.95;;;0.80;;
24663;SDS011;12791;50.992;13.788;2023-07-02T11:40:27;0.95;;;0.95;;
24663;SDS011;12791;50.992;13.788;2023-07-02T11:42:53;1.02;;;0.93;;
24663;SDS011;12791;50.992;13.788;2023-07-02T11:45:20;0.90;;;0.90;;
24663;SDS011;12791;50.992;13.788;2023-07-02T11:47:48;1.10;;;1.00;;
24663;SDS011;12791;50.992;13.788;2023-07-02T11:50:15;0.90;;;0.90;;
24663;SDS011;12791;50.992;13.788;2023-07-02T11:52:41;1.58;;;0.80;;
24663;SDS011;12791;50.992;13.788;2023-07-02T11:55:08;1.00;;;0.75;;
24663;SDS011;12791;50.992;13.788;2023-07-02T11:57:35;0.70;;;0.70;;
24663;SDS011;12791;50.992;13.788;2023-07-02T12:00:01;0.82;;;0.68;;
24663;SDS011;12791;50.992;13.788;2023-07-02T12:02:28;1.92;;;1.10;;
24663;SDS011;12791;50.992;13.788;2023-07-02T12:04:56;1.13;;;0.90;;
24663;SDS011;12791;50.992;13.788;2023-07-02T12:07:23;1.20;;;0.80;;
24663;SDS011;12791;50.992;13.788;2023-07-02T12:09:50;0.93;;;0.70;;
24663;SDS011;12791;50.992;13.788;2023-07-02T12:12:17;1.45;;;0.70;;
24663;SDS011;12791;50.992;13.788;2023-07-02T12:14:44;0.90;;;0.90;;
24663;SDS011;12791;50.992;13.788;2023-07-02T12:17:10;0.93;;;0.90;;
24663;SDS011;12791;50.992;13.788;2023-07-02T12:19:37;1.20;;;1.10;;
24663;SDS011;12791;50.992;13.788;2023-07-02T12:22:05;2.15;;;0.80;;
24663;SDS011;12791;50.992;13.788;2023-07-02T12:24:32;1.98;;;1.13;;
24663;SDS011;12791;50.992;13.788;2023-07-02T12:26:59;1.08;;;1.00;;
24663;SDS011;12791;50.992;13.788;2023-07-02T12:29:26;2.00;;;1.20;;
24663;SDS011;12791;50.992;13.788;2023-07-02T12:31:52;1.55;;;1.20;;
24663;SDS011;12791;50.992;13.788;2023-07-02T12:34:19;3.30;;;1.55;;
24663;SDS011;12791;50.992;13.788;2023-07-02T12:36:45;0.98;;;0.90;;
24663;SDS011;12791;50.992;13.788;2023-07-02T12:39:13;1.13;;;1.05;;
24663;SDS011;12791;50.992;13.788;2023-07-02T12:41:40;1.33;;;1.23;;
24663;SDS011;12791;50.992;13.788;2023-07-02T12:44:07;1.77;;;1.25;;
24663;SDS011;12791;50.992;13.788;2023-07-02T12:46:33;2.80;;;1.40;;
24663;SDS011;12791;50.992;13.788;2023-07-02T12:49:00;1.25;;;1.17;;
24663;SDS011;12791;50.992;13.788;2023-07-02T12:51:27;2.03;;;1.00;;
24663;SDS011;12791;50.992;13.788;2023-07-02T12:53:53;2.15;;;1.30;;
24663;SDS011;12791;50.992;13.788;2023-07-02T12:56:21;1.80;;;1.40;;
24663;SDS011;12791;50.992;13.788;2023-07-02T12:58:48;1.27;;;1.27;;
24663;SDS011;12791;50.992;13.788;2023-07-02T13:01:16;2.13;;;1.17;;
24663;SDS011;12791;50.992;13.788;2023-07-02T13:03:44;1.40;;;1.30;;
24663;SDS011;12791;50.992;13.788;2023-07-02T13:06:12;1.70;;;1.10;;
24663;SDS011;12791;50.992;13.788;2023-07-02T13:08:38;1.63;;;1.40;;
24663;SDS011;12791;50.992;13.788;2023-07-02T13:11:05;1.65;;;1.55;;
24663;SDS011;12791;50.992;13.788;2023-07-02T13:13:33;1.50;;;1.40;;
24663;SDS011;12791;50.992;13.788;2023-07-02T13:16:01;1.20;;;1.10;;
24663;SDS011;12791;50.992;13.788;2023-07-02T13:18:28;1.33;;;1.23;;
24663;SDS011;12791;50.992;13.788;2023-07-02T13:20:55;2.25;;;1.55;;
24663;SDS011;12791;50.992;13.788;2023-07-02T13:23:21;1.25;;;1.17;;
24663;SDS011;12791;50.992;13.788;2023-07-02T13:25:48;1.20;;;1.10;;
24663;SDS011;12791;50.992;13.788;2023-07-02T13:28:15;1.40;;;1.30;;
24663;SDS011;12791;50.992;13.788;2023-07-02T13:30:43;2.00;;;1.60;;
24663;SDS011;12791;50.992;13.788;2023-07-02T13:33:10;1.45;;;1.35;;
24663;SDS011;12791;50.992;13.788;2023-07-02T13:35:36;3.30;;;1.80;;
24663;SDS011;12791;50.992;13.788;2023-07-02T13:38:03;3.33;;;1.70;;
24663;SDS011;12791;50.992;13.788;2023-07-02T13:40:30;2.08;;;1.90;;
24663;SDS011;12791;50.992;13.788;2023-07-02T13:42:57;3.30;;;2.10;;
24663;SDS011;12791;50.992;13.788;2023-07-02T13:45:23;3.75;;;2.90;;
24663;SDS011;12791;50.992;13.788;2023-07-02T13:47:51;3.38;;;2.40;;
24663;SDS011;12791;50.992;13.788;2023-07-02T13:50:18;4.32;;;2.05;;
24663;SDS011;12791;50.992;13.788;2023-07-02T13:52:45;2.70;;;2.42;;
24663;SDS011;12791;50.992;13.788;2023-07-02T13:55:13;2.35;;;2.15;;
24663;SDS011;12791;50.992;13.788;2023-07-02T13:57:39;2.08;;;1.88;;
24663;SDS011;12791;50.992;13.788;2023-07-02T14:00:08;2.78;;;2.00;;
24663;SDS011;12791;50.992;13.788;2023-07-02T14:02:36;1.92;;;1.80;;
24663;SDS011;12791;50.992;13.788;2023-07-02T14:05:02;3.45;;;2.35;;
24663;SDS011;12791;50.992;13.788;2023-07-02T14:07:29;1.83;;;1.73;;
24663;SDS011;12791;50.992;13.788;2023-07-02T14:09:56;2.63;;;1.80;;
24663;SDS011;12791;50.992;13.788;2023-07-02T14:12:22;2.63;;;1.40;;
24663;SDS011;12791;50.992;13.788;2023-07-02T14:14:49;5.35;;;1.70;;
24663;SDS011;12791;50.992;13.788;2023-07-02T14:17:17;2.03;;;1.77;;
24663;SDS011;12791;50.992;13.788;2023-07-02T14:19:43;2.13;;;1.92;;
24663;SDS011;12791;50.992;13.788;2023-07-02T14:22:10;2.28;;;1.70;;
24663;SDS011;12791;50.992;13.788;2023-07-02T14:24:37;2.00;;;1.85;;
24663;SDS011;12791;50.992;13.788;2023-07-02T14:27:04;2.85;;;1.80;;
24663;SDS011;12791;50.992;13.788;2023-07-02T14:29:31;1.98;;;1.75;;
24663;SDS011;12791;50.992;13.788;2023-07-02T14:31:58;1.88;;;1.77;;
24663;SDS011;12791;50.992;13.788;2023-07-02T14:34:26;2.47;;;1.60;;